Flight Track Log - Related Links

Times and Time Zones

All times are in EDT time to prevent confusion due to time zone crossing. See the UAL256 flight status page for this flight to view local times or setup timezone preferences in your user account.

Time Position Orientation Groundspeed Altitude Reporting Facility
EDT Latitude Longitude Course Direction KTS MPH feet Rate Location/Type
Thu 06:16:20 PM 47.4614 -122.3089 90° East 164 189 1,100  Level Seattle Center
Thu 06:17:27 PM 47.5222 -122.3117 358° North 208 239 2,800 1,740 Climbing Seattle Center
Thu 06:18:31 PM 47.5975 -122.3000 North 260 299 4,900 2,286 Climbing Seattle Center
Thu 06:19:00 PM 47.4167 -121.6241 90° East  Level FlightAware Approximate
Thu 06:19:33 PM 47.6108 -122.1947 79° East 282 325 7,600  Level Seattle Center
Thu 06:20:00 PM 47.4167 -121.4542 90° East  Level FlightAware Approximate
Thu 06:20:34 PM 47.6122 -122.0733 89° East 293 337 10,200  Level Seattle Center
Thu 06:21:00 PM 47.4168 -121.2844 90° East  Level FlightAware Approximate
Thu 06:21:35 PM 47.6058 -121.9383 94° East 336 387 11,300  Level Seattle Center
Thu 06:22:36 PM 47.5697 -121.7869 109° East 363 418 13,900 2,311 Climbing Seattle Center
Thu 06:23:37 PM 47.5208 -121.6514 118° Southeast 374 430 16,000 1,869 Climbing Seattle Center
Thu 06:24:38 PM 47.4692 -121.5142 119° Southeast 381 438 17,700 1,623 Climbing Seattle Center
Thu 06:25:39 PM 47.4164 -121.3731 119° Southeast 394 453 19,300 1,279 Climbing Seattle Center
Thu 06:26:40 PM 47.3608 -121.2228 119° Southeast 420 483 20,300 1,180 Climbing Seattle Center
Thu 06:27:41 PM 47.3017 -121.0686 119° Southeast 434 499 21,700 1,328 Climbing Seattle Center
Thu 06:28:42 PM 47.2417 -120.9114 119° Southeast 444 511 23,000 1,180 Climbing Seattle Center
Thu 06:29:43 PM 47.1758 -120.7400 119° Southeast 454 522 24,100 1,082 Climbing Seattle Center
Thu 06:30:44 PM 47.1131 -120.5769 119° Southeast 458 527 25,200 1,082 Climbing Seattle Center
Thu 06:31:45 PM 47.0486 -120.4125 120° Southeast 466 536 26,300 1,033 Climbing Seattle Center
Thu 06:32:46 PM 46.9806 -120.2333 119° Southeast 472 543 27,300 1,033 Climbing Seattle Center
Thu 06:33:47 PM 46.9139 -120.0675 120° Southeast 473 544 28,400 934 Climbing Seattle Center
Thu 06:34:48 PM 46.8536 -119.9122 120° Southeast 475 547 29,200 836 Climbing Seattle Center
Thu 06:35:49 PM 46.7867 -119.7456 120° Southeast 477 549 30,100 738 Climbing Seattle Center
Thu 06:36:50 PM 46.7133 -119.5622 120° Southeast 481 554 30,700 885 Climbing Seattle Center
Thu 06:37:51 PM 46.6450 -119.3919 120° Southeast 486 559 31,900 984 Climbing Seattle Center
Thu 06:38:52 PM 46.5769 -119.2264 121° Southeast 477 549 32,700 738 Climbing Seattle Center
Thu 06:39:53 PM 46.5103 -119.0597 120° Southeast 478 550 33,400 639 Climbing Seattle Center
Thu 06:40:54 PM 46.4375 -118.8817 121° Southeast 470 541 34,000 639 Climbing Seattle Center
Thu 06:41:55 PM 46.3681 -118.7153 121° Southeast 481 554 34,700 492 Climbing Seattle Center
Thu 06:42:56 PM 46.3006 -118.5517 121° Southeast 478 550 35,000 98 Climbing Seattle Center
Thu 06:43:57 PM 46.2328 -118.3886 121° Southeast 478 550 34,900 -49 Descending Seattle Center
Thu 06:44:58 PM 46.1636 -118.2267 122° Southeast 477 549 34,900  Level Seattle Center
Thu 06:45:59 PM 46.0950 -118.0622 121° Southeast 479 551 34,900  Level Seattle Center
Thu 06:47:00 PM 46.0256 -117.9011 122° Southeast 477 549 34,900 49 Level Seattle Center
Thu 06:48:01 PM 45.9428 -117.7075 122° Southeast 477 549 35,000 49 Climbing Seattle Center
Thu 06:49:02 PM 45.8728 -117.5447 122° Southeast 479 551 35,000 -49 Level Seattle Center
Thu 06:50:03 PM 45.8042 -117.3856 122° Southeast 474 545 34,900 -49 Descending Seattle Center
Thu 06:51:04 PM 45.7356 -117.2281 122° Southeast 470 541 34,900 49 Level Seattle Center
Thu 06:52:05 PM 45.6600 -117.0564 122° Southeast 476 548 35,000 49 Climbing Seattle Center
Thu 06:53:06 PM 45.5922 -116.9025 122° Southeast 478 550 35,000  Level Seattle Center
Thu 06:54:07 PM 45.5133 -116.7239 122° Southeast 478 550 35,000  Level Seattle Center
Thu 06:55:08 PM 45.4458 -116.5725 122° Southeast 472 543 35,000  Level Seattle Center
Thu 06:56:09 PM 45.3775 -116.4206 123° Southeast 474 545 35,000  Level Seattle Center
Thu 06:56:26 PM 45.3556 -116.3703 122° Southeast 475 547 35,000  Level Salt Lake Center
Thu 06:57:28 PM 45.2878 -116.2192 122° Southeast 474 545 35,000  Level Salt Lake Center
Thu 06:58:11 PM 45.2306 -116.0944 123° Southeast 470 541 35,000  Level Seattle Center
Thu 06:59:12 PM 45.1614 -115.9428 123° Southeast 473 544 35,000  Level Seattle Center
Thu 07:00:13 PM 45.0828 -115.7686 123° Southeast 470 541 35,000  Level Seattle Center
Thu 07:00:33 PM 45.0608 -115.7178 121° Southeast 473 544 35,000  Level Salt Lake Center
Thu 07:01:34 PM 44.9911 -115.5692 124° Southeast 471 542 35,000  Level Salt Lake Center
Thu 07:02:36 PM 44.9231 -115.4219 123° Southeast 468 539 35,000  Level Salt Lake Center
Thu 07:03:37 PM 44.8414 -115.2472 123° Southeast 474 545 35,000  Level Salt Lake Center
Thu 07:04:39 PM 44.7725 -115.1000 123° Southeast 471 542 35,000  Level Salt Lake Center
Thu 07:05:40 PM 44.6914 -114.9283 124° Southeast 469 540 35,000  Level Salt Lake Center
Thu 07:06:42 PM 44.6219 -114.7817 124° Southeast 470 541 35,000  Level Salt Lake Center
Thu 07:07:43 PM 44.5517 -114.6339 124° Southeast 473 544 35,000 -49 Level Salt Lake Center
Thu 07:08:45 PM 44.4711 -114.4639 124° Southeast 470 541 34,900  Descending Salt Lake Center
Thu 07:09:47 PM 44.4011 -114.3172 124° Southeast 472 543 35,000 49 Climbing Salt Lake Center
Thu 07:10:48 PM 44.3156 -114.1472 125° Southeast 478 550 35,000  Level Salt Lake Center
Thu 07:11:50 PM 44.2447 -114.0019 124° Southeast 475 547 35,000  Level Salt Lake Center
Thu 07:12:51 PM 44.1642 -113.8347 124° Southeast 473 544 35,000  Level Salt Lake Center
Thu 07:13:53 PM 44.0911 -113.6894 125° Southeast 478 550 35,000  Level Salt Lake Center
Thu 07:14:54 PM 44.0222 -113.5461 124° Southeast 471 542 35,000  Level Salt Lake Center
Thu 07:15:56 PM 43.9372 -113.3789 125° Southeast 475 547 35,000  Level Salt Lake Center
Thu 07:16:58 PM 43.8692 -113.2317 123° Southeast 476 548 35,000  Level Salt Lake Center
Thu 07:17:59 PM 43.7917 -113.0608 122° Southeast 471 542 35,000  Level Salt Lake Center
Thu 07:19:01 PM 43.7233 -112.9164 123° Southeast 471 542 35,000  Level Salt Lake Center
Thu 07:20:03 PM 43.6436 -112.7456 123° Southeast 474 545 35,000  Level Salt Lake Center
Thu 07:21:04 PM 43.5750 -112.5994 123° Southeast 476 548 35,000  Level Salt Lake Center
Thu 07:22:06 PM 43.4975 -112.4353 123° Southeast 464 534 35,000  Level Salt Lake Center
Thu 07:23:08 PM 43.4294 -112.2914 123° Southeast 469 540 35,000  Level Salt Lake Center
Thu 07:24:09 PM 43.3606 -112.1497 124° Southeast 466 536 35,000  Level Salt Lake Center
Thu 07:25:11 PM 43.2811 -111.9853 124° Southeast 464 534 35,000  Level Salt Lake Center
Thu 07:26:13 PM 43.2119 -111.8425 124° Southeast 470 541 35,000  Level Salt Lake Center
Thu 07:27:15 PM 43.1306 -111.6753 124° Southeast 473 544 35,000  Level Salt Lake Center
Thu 07:28:16 PM 43.0617 -111.5350 124° Southeast 467 537 35,000  Level Salt Lake Center
Thu 07:29:18 PM 42.9817 -111.3703 124° Southeast 468 539 35,000  Level Salt Lake Center
Thu 07:30:20 PM 42.9117 -111.2289 124° Southeast 470 541 35,000  Level Salt Lake Center
Thu 07:31:22 PM 42.8300 -111.0650 124° Southeast 470 541 35,000  Level Salt Lake Center
Thu 07:32:23 PM 42.7617 -110.9267 124° Southeast 465 535 35,000  Level Salt Lake Center
Thu 07:33:25 PM 42.6892 -110.7831 124° Southeast 467 537 35,000  Level Salt Lake Center
Thu 07:34:27 PM 42.6069 -110.6219 125° Southeast 466 536 35,000  Level Salt Lake Center
Thu 07:35:29 PM 42.5350 -110.4811 125° Southeast 474 545 35,000  Level Salt Lake Center
Thu 07:36:31 PM 42.4528 -110.3172 124° Southeast 473 544 35,000  Level Salt Lake Center
Thu 07:37:33 PM 42.3797 -110.1783 125° Southeast 474 545 35,000  Level Salt Lake Center
Thu 07:38:34 PM 42.2969 -110.0164 125° Southeast 470 541 35,000  Level Salt Lake Center
Thu 07:39:36 PM 42.2253 -109.8772 125° Southeast 471 542 35,000  Level Salt Lake Center
Thu 07:40:39 PM 42.1422 -109.7169 125° Southeast 468 539 35,000  Level Salt Lake Center
Thu 07:41:40 PM 42.0717 -109.5800 125° Southeast 467 537 35,000  Level Salt Lake Center
Thu 07:42:42 PM 41.9989 -109.4422 125° Southeast 470 541 35,000  Level Salt Lake Center
Thu 07:43:44 PM 41.9150 -109.2817 125° Southeast 470 541 35,000  Level Salt Lake Center
Thu 07:44:46 PM 41.8419 -109.1444 126° Southeast 470 541 35,000  Level Salt Lake Center
Thu 07:45:47 PM 41.7567 -108.9842 125° Southeast 470 541 35,000  Level Salt Lake Center
Thu 07:46:49 PM 41.6839 -108.8467 125° Southeast 469 540 35,000  Level Salt Lake Center
Thu 07:47:51 PM 41.6108 -108.7094 125° Southeast 469 540 35,000  Level Salt Lake Center
Thu 07:48:53 PM 41.5261 -108.5533 126° Southeast 463 533 35,000  Level Salt Lake Center
Thu 07:49:55 PM 41.4531 -108.4192 126° Southeast 465 535 35,000  Level Salt Lake Center
Thu 07:50:57 PM 41.3686 -108.2633 126° Southeast 464 534 35,000  Level Salt Lake Center
Thu 07:51:27 PM 41.3344 -108.1947 124° Southeast 461 531 35,000  Level Denver Center
Thu 07:51:59 PM 41.3078 -108.1222 116° Southeast 464 534 35,000  Level Salt Lake Center
Thu 07:53:00 PM 41.2414 -107.9525 117° Southeast 464 534 35,000  Level Salt Lake Center
Thu 07:54:02 PM 41.1844 -107.8106 118° Southeast 456 525 35,000  Level Salt Lake Center
Thu 07:54:33 PM 41.1561 -107.7364 117° Southeast 460 529 35,000  Level Denver Center
Thu 07:55:35 PM 41.0886 -107.5694 118° Southeast 461 531 35,000  Level Denver Center
Thu 07:56:37 PM 41.0325 -107.4261 117° Southeast 459 528 35,000  Level Denver Center
Thu 07:57:39 PM 40.9650 -107.2586 118° Southeast 461 531 35,000  Level Denver Center
Thu 07:58:41 PM 40.9072 -107.1150 118° Southeast 462 532 35,000 -48 Level Denver Center
Thu 07:59:43 PM 40.8408 -106.9486 118° Southeast 460 529 34,900 -1,016 Descending Denver Center
Thu 08:00:45 PM 40.7958 -106.7997 112° Southeast 458 527 32,900 -1,452 Descending Denver Center
Thu 08:01:47 PM 40.7444 -106.6375 113° Southeast 454 522 31,900 -968 Descending Denver Center
Thu 08:02:49 PM 40.6975 -106.4894 113° Southeast 456 525 30,900 -1,016 Descending Denver Center
Thu 08:03:51 PM 40.6419 -106.3169 113° Southeast 458 527 29,800 -968 Descending Denver Center
Thu 08:04:53 PM 40.5947 -106.1672 113° Southeast 460 529 28,900 -1,452 Descending Denver Center
Thu 08:05:55 PM 40.5433 -106.0069 113° Southeast 463 533 26,800 -2,565 Descending Denver Center
Thu 08:06:57 PM 40.4906 -105.8444 113° Southeast 472 543 23,600 -2,419 Descending Denver Center
Thu 08:07:59 PM 40.4378 -105.6839 113° Southeast 479 551 21,800 -1,344 Descending Denver Center
Thu 08:09:02 PM 40.3931 -105.5481 113° Southeast 430 495 20,800 -1,296 Descending Denver Center
Thu 08:10:04 PM 40.3464 -105.4153 115° Southeast 351 404 19,100 -1,355 Descending Denver Center
Thu 08:11:06 PM 40.2842 -105.3236 132° Southeast 337 388 18,000 -919 Descending Denver Center
Thu 08:12:08 PM 40.2197 -105.2197 129° Southeast 341 392 17,200 -1,113 Descending Denver Center
Thu 08:13:10 PM 40.1769 -105.1186 119° Southeast 320 368 15,700 -1,500 Descending Denver Center
Thu 08:14:12 PM 40.1311 -105.0106 119° Southeast 316 364 14,100 -1,306 Descending Denver Center
Thu 08:15:14 PM 40.0897 -104.9144 119° Southeast 306 352 13,000 -532 Descending Denver Center
Thu 08:16:16 PM 40.0458 -104.8128 119° Southeast 300 345 13,000  Level Denver Center
Thu 08:17:18 PM 40.0017 -104.7364 127° Southeast 267 307 13,000 -48 Level Denver Center
Thu 08:18:20 PM 39.9506 -104.6692 135° Southeast 261 300 12,900 -605 Descending Denver Center
Thu 08:19:17 PM 39.9000 -104.6000 134° Southeast 258 297 11,800 -974 Descending Denver TRACON
Thu 08:20:17 PM 39.8500 -104.5333 134° Southeast 251 289 11,000 -381 Descending Denver TRACON
Thu 08:21:23 PM 39.7833 -104.5167 169° South 259 298 11,000 -143 Level Denver TRACON
Thu 08:22:23 PM 39.7167 -104.5167 180° South 254 292 10,700 -800 Descending Denver TRACON
Thu 08:23:23 PM 39.6333 -104.5167 180° South 249 287 9,400 -977 Descending Denver TRACON
Thu 08:24:32 PM 39.5669 -104.5233 184° South 243 280 8,600 -646 Descending Denver Center
Thu 08:25:33 PM 39.5283 -104.5825 230° Southwest 223 257 8,000 -293 Descending Denver Center
Thu 08:26:35 PM 39.5725 -104.6297 321° Northwest 217 250 8,000 -48 Level Denver Center
Thu 08:27:37 PM 39.6317 -104.6439 350° North 203 234 7,900 -97 Descending Denver Center

Login

Don't have an account? Register now (free) for customized features, flight alerts, and more!